createdAt,value
2023-11-19T00:00:54.092Z,7.86
2023-11-19T00:01:50.381Z,7.83
2023-11-19T00:02:50.418Z,7.80
2023-11-19T00:03:51.445Z,7.79
2023-11-19T00:04:50.311Z,7.77
2023-11-19T00:05:50.220Z,7.74
2023-11-19T00:06:50.242Z,7.75
2023-11-19T00:07:50.228Z,7.80
2023-11-19T00:08:50.207Z,7.80
2023-11-19T00:09:50.219Z,7.75
2023-11-19T00:10:50.235Z,7.72
2023-11-19T00:12:50.458Z,7.77
2023-11-19T00:13:50.142Z,7.80
2023-11-19T00:14:50.152Z,7.79
2023-11-19T00:15:50.162Z,7.77
2023-11-19T00:16:50.106Z,7.74
2023-11-19T00:17:50.710Z,7.72
2023-11-19T00:18:50.166Z,7.72
2023-11-19T00:19:50.090Z,7.71
2023-11-19T00:20:50.088Z,7.68
2023-11-19T00:21:50.060Z,7.71
2023-11-19T00:22:50.816Z,7.74
2023-11-19T00:23:50.051Z,7.74
2023-11-19T00:24:50.058Z,7.79
2023-11-19T00:25:50.004Z,7.75
2023-11-19T00:26:49.994Z,7.72
2023-11-19T00:27:50.067Z,7.71
2023-11-19T00:28:49.989Z,7.69
2023-11-19T00:29:49.966Z,7.69
2023-11-19T00:30:50.029Z,7.69
2023-11-19T00:31:50.130Z,7.71
2023-11-19T00:32:49.941Z,7.71
2023-11-19T00:33:50.714Z,7.69
2023-11-19T00:34:49.925Z,7.69
2023-11-19T00:35:49.920Z,7.69
2023-11-19T00:36:49.994Z,7.68
2023-11-19T00:37:49.913Z,7.69
2023-11-19T00:38:49.860Z,7.64
2023-11-19T00:39:49.890Z,7.71
2023-11-19T00:40:49.940Z,7.72
2023-11-19T00:41:49.849Z,7.80
2023-11-19T00:42:49.829Z,7.83
2023-11-19T00:43:49.830Z,7.82
2023-11-19T00:44:51.538Z,7.83
2023-11-19T00:45:49.799Z,7.80
2023-11-19T00:46:49.866Z,7.79
2023-11-19T00:47:49.786Z,7.80
2023-11-19T00:48:49.785Z,7.85
2023-11-19T00:49:49.768Z,7.83
2023-11-19T00:50:49.730Z,7.83
2023-11-19T00:51:49.758Z,7.86
2023-11-19T00:52:49.777Z,7.93
2023-11-19T00:53:49.734Z,7.95
2023-11-19T00:54:49.695Z,8.00
2023-11-19T00:55:49.740Z,8.07
2023-11-19T00:56:49.673Z,8.11
2023-11-19T00:57:49.686Z,8.11
2023-11-19T00:58:49.677Z,8.12
2023-11-19T00:59:49.649Z,8.10
2023-11-19T01:00:49.630Z,8.11
2023-11-19T01:01:49.614Z,8.15
2023-11-19T01:02:49.735Z,8.18
2023-11-19T01:03:49.810Z,8.22
2023-11-19T01:04:49.724Z,8.36
2023-11-19T01:05:49.682Z,8.36
2023-11-19T01:06:50.132Z,8.34
2023-11-19T01:07:49.602Z,8.34
2023-11-19T01:08:49.615Z,8.37
2023-11-19T01:09:49.613Z,8.38
2023-11-19T01:10:49.597Z,8.41
2023-11-19T01:11:49.555Z,8.41
2023-11-19T01:12:49.576Z,8.40
2023-11-19T01:13:49.508Z,8.53
2023-11-19T01:14:49.471Z,8.55
2023-11-19T01:15:49.503Z,8.56
2023-11-19T01:16:49.530Z,8.55
2023-11-19T01:17:53.042Z,8.61
2023-11-19T01:18:49.434Z,8.61
2023-11-19T01:19:49.496Z,8.58
2023-11-19T01:20:49.432Z,8.58
2023-11-19T01:21:49.412Z,8.56
2023-11-19T01:22:49.422Z,8.62
2023-11-19T01:23:49.376Z,8.59
2023-11-19T01:24:49.389Z,8.61
2023-11-19T01:25:49.366Z,8.63
2023-11-19T01:26:49.339Z,8.62
2023-11-19T01:27:49.343Z,8.62
2023-11-19T01:28:52.449Z,8.65
2023-11-19T01:29:49.349Z,8.71
2023-11-19T01:30:49.295Z,8.73
2023-11-19T01:31:49.291Z,8.80
2023-11-19T01:32:49.328Z,8.79
2023-11-19T01:33:49.317Z,8.74
2023-11-19T01:34:49.356Z,8.76
2023-11-19T01:35:49.261Z,8.84
2023-11-19T01:36:49.254Z,8.84
2023-11-19T01:37:49.239Z,8.84
2023-11-19T01:38:49.216Z,8.83
2023-11-19T01:39:59.058Z,8.83
2023-11-19T01:40:49.225Z,8.87
2023-11-19T01:41:49.185Z,8.87
2023-11-19T01:42:49.174Z,8.86
2023-11-19T01:43:49.212Z,8.87
2023-11-19T01:44:49.166Z,8.86
2023-11-19T01:45:49.176Z,8.86
2023-11-19T01:46:49.416Z,8.89
2023-11-19T01:47:49.162Z,8.87
2023-11-19T01:48:49.104Z,8.89
2023-11-19T01:49:49.116Z,8.87
2023-11-19T01:50:49.096Z,8.99
2023-11-19T01:51:49.091Z,8.96
2023-11-19T01:52:49.079Z,9.02
2023-11-19T01:53:49.054Z,8.98
2023-11-19T01:54:49.045Z,8.95
2023-11-19T01:55:49.064Z,8.94
2023-11-19T01:56:49.020Z,8.94
2023-11-19T01:57:49.017Z,8.94
2023-11-19T01:58:48.986Z,9.04
2023-11-19T01:59:48.996Z,9.04
2023-11-19T02:00:49.031Z,9.02
2023-11-19T02:02:49.233Z,9.04
2023-11-19T02:03:49.148Z,9.05
2023-11-19T02:04:49.008Z,9.11
2023-11-19T02:05:48.943Z,9.13
2023-11-19T02:06:48.921Z,9.13
2023-11-19T02:07:48.918Z,9.11
2023-11-19T02:08:48.912Z,9.13
2023-11-19T02:09:48.890Z,9.14
2023-11-19T02:10:48.883Z,9.14
2023-11-19T02:11:48.893Z,9.15
2023-11-19T02:12:48.846Z,9.18
2023-11-19T02:13:48.841Z,9.24
2023-11-19T02:14:48.838Z,9.24
2023-11-19T02:15:48.833Z,9.24
2023-11-19T02:16:48.858Z,9.21
2023-11-19T02:17:48.855Z,9.26
2023-11-19T02:18:48.783Z,9.24
2023-11-19T02:19:48.769Z,9.24
2023-11-19T02:20:50.861Z,9.24
2023-11-19T02:21:48.751Z,9.24
2023-11-19T02:22:48.729Z,9.26
2023-11-19T02:23:48.857Z,9.26
2023-11-19T02:24:48.720Z,9.23
2023-11-19T02:25:48.738Z,9.28
2023-11-19T02:26:48.701Z,9.24
2023-11-19T02:27:48.684Z,9.26
2023-11-19T02:28:48.697Z,9.26
2023-11-19T02:29:48.675Z,9.31
2023-11-19T02:30:48.661Z,9.32
2023-11-19T02:31:48.813Z,9.36
2023-11-19T02:32:48.653Z,9.36
2023-11-19T02:33:48.647Z,9.39
2023-11-19T02:34:48.612Z,9.38
2023-11-19T02:35:48.636Z,9.43
2023-11-19T02:36:48.604Z,9.46
2023-11-19T02:37:48.579Z,9.48
2023-11-19T02:38:48.574Z,9.46
2023-11-19T02:39:48.576Z,9.42
2023-11-19T02:40:48.601Z,9.43
2023-11-19T02:41:48.557Z,9.40
2023-11-19T02:42:48.520Z,9.46
2023-11-19T02:43:48.507Z,9.43
2023-11-19T02:44:48.497Z,9.40
2023-11-19T02:45:48.564Z,9.43
2023-11-19T02:46:48.481Z,9.47
2023-11-19T02:47:48.496Z,9.48
2023-11-19T02:48:48.492Z,9.51
2023-11-19T02:49:48.447Z,9.60
2023-11-19T02:50:48.435Z,9.61
2023-11-19T02:51:48.445Z,9.64
2023-11-19T02:52:48.420Z,9.61
2023-11-19T02:53:48.426Z,9.61
2023-11-19T02:54:48.401Z,9.61
2023-11-19T02:55:48.426Z,9.69
2023-11-19T02:56:48.368Z,9.72
2023-11-19T02:57:48.405Z,9.75
2023-11-19T02:58:48.348Z,9.79
2023-11-19T02:59:48.337Z,9.87
2023-11-19T03:00:48.354Z,9.89
2023-11-19T03:01:48.377Z,9.83
2023-11-19T03:02:48.394Z,9.81
2023-11-19T03:03:48.388Z,9.79
2023-11-19T03:04:48.325Z,9.78
2023-11-19T03:05:48.321Z,9.78
2023-11-19T03:06:48.264Z,9.76
2023-11-19T03:07:48.256Z,9.72
2023-11-19T03:08:48.274Z,9.72
2023-11-19T03:09:48.236Z,9.72
2023-11-19T03:10:48.237Z,9.76
2023-11-19T03:11:48.219Z,9.76
2023-11-19T03:12:48.204Z,9.79
2023-11-19T03:13:48.199Z,9.84
2023-11-19T03:14:48.176Z,9.89
2023-11-19T03:15:48.221Z,9.91
2023-11-19T03:16:48.293Z,9.94
2023-11-19T03:17:48.171Z,9.96
2023-11-19T03:18:48.163Z,9.97
2023-11-19T03:19:48.138Z,9.94
2023-11-19T03:20:48.116Z,10.01
2023-11-19T03:21:48.120Z,9.99
2023-11-19T03:22:48.084Z,10.05
2023-11-19T03:23:48.088Z,10.07
2023-11-19T03:24:48.064Z,10.04
2023-11-19T03:25:48.057Z,10.02
2023-11-19T03:26:48.068Z,10.07
2023-11-19T03:27:48.031Z,10.05
2023-11-19T03:28:48.036Z,10.05
2023-11-19T03:29:48.020Z,10.04
2023-11-19T03:30:48.002Z,10.07
2023-11-19T03:31:48.012Z,10.07
2023-11-19T03:32:48.010Z,10.11
2023-11-19T03:33:48.056Z,10.08
2023-11-19T03:34:47.950Z,10.09
2023-11-19T03:35:47.968Z,10.08
2023-11-19T03:36:47.965Z,10.08
2023-11-19T03:37:47.921Z,10.11
2023-11-19T03:38:47.906Z,10.17
2023-11-19T03:39:47.929Z,10.18
2023-11-19T03:40:47.934Z,10.18
2023-11-19T03:41:47.912Z,10.20
2023-11-19T03:42:47.887Z,10.18
2023-11-19T03:43:47.868Z,10.17
2023-11-19T03:44:47.859Z,10.17
2023-11-19T03:45:48.104Z,10.15
2023-11-19T03:46:47.947Z,10.20
2023-11-19T03:47:47.883Z,10.20
2023-11-19T03:48:47.796Z,10.15
2023-11-19T03:49:47.797Z,10.20
2023-11-19T03:50:47.780Z,10.15
2023-11-19T03:51:47.796Z,10.17
2023-11-19T03:52:47.833Z,10.20
2023-11-19T03:53:47.770Z,10.18
2023-11-19T03:54:47.752Z,10.20
2023-11-19T03:55:47.782Z,10.23
2023-11-19T03:56:47.711Z,10.23
2023-11-19T03:57:47.750Z,10.18
2023-11-19T03:58:47.704Z,10.18
2023-11-19T03:59:47.691Z,10.22
2023-11-19T04:00:47.676Z,10.20
2023-11-19T04:01:47.756Z,10.17
2023-11-19T04:02:47.685Z,10.20
2023-11-19T04:03:51.273Z,10.17
2023-11-19T04:04:47.675Z,10.17
2023-11-19T04:05:47.644Z,10.22
2023-11-19T04:06:47.641Z,10.22
2023-11-19T04:07:47.616Z,10.25
2023-11-19T04:08:47.593Z,10.25
2023-11-19T04:09:47.583Z,10.30
2023-11-19T04:10:47.573Z,10.30
2023-11-19T04:11:47.575Z,10.30
2023-11-19T04:12:47.595Z,10.29
2023-11-19T04:13:47.625Z,10.34
2023-11-19T04:14:47.538Z,10.33
2023-11-19T04:15:47.536Z,10.34
2023-11-19T04:16:47.564Z,10.33
2023-11-19T04:17:47.548Z,10.34
2023-11-19T04:18:47.527Z,10.34
2023-11-19T04:19:47.515Z,10.32
2023-11-19T04:20:47.495Z,10.34
2023-11-19T04:21:47.486Z,10.34
2023-11-19T04:22:47.471Z,10.36
2023-11-19T04:23:47.455Z,10.33
2023-11-19T04:24:47.413Z,10.38
2023-11-19T04:25:47.421Z,10.41
2023-11-19T04:26:47.451Z,10.44
2023-11-19T04:27:47.401Z,10.42
2023-11-19T04:28:47.375Z,10.42
2023-11-19T04:29:47.369Z,10.42
2023-11-19T04:30:47.374Z,10.42
2023-11-19T04:31:47.439Z,10.47
2023-11-19T04:32:47.415Z,10.48
2023-11-19T04:33:47.352Z,10.45
2023-11-19T04:34:47.316Z,10.44
2023-11-19T04:35:47.337Z,10.45
2023-11-19T04:36:47.352Z,10.47
2023-11-19T04:37:47.316Z,10.48
2023-11-19T04:38:47.286Z,10.51
2023-11-19T04:39:47.482Z,10.52
2023-11-19T04:40:47.343Z,10.45
2023-11-19T04:41:47.243Z,10.47
2023-11-19T04:42:47.231Z,10.52
2023-11-19T04:43:47.243Z,10.52
2023-11-19T04:44:47.230Z,10.51
2023-11-19T04:45:47.220Z,10.52
2023-11-19T04:46:47.285Z,10.56
2023-11-19T04:47:47.209Z,10.56
2023-11-19T04:48:47.167Z,10.60
2023-11-19T04:49:47.170Z,10.60
2023-11-19T04:50:47.149Z,10.55
2023-11-19T04:51:47.157Z,10.59
2023-11-19T04:52:47.157Z,10.59
2023-11-19T04:53:48.006Z,10.56
2023-11-19T04:54:47.145Z,10.55
2023-11-19T04:55:47.094Z,10.56
2023-11-19T04:56:47.105Z,10.52
2023-11-19T04:57:47.084Z,10.52
2023-11-19T04:58:47.086Z,10.48
2023-11-19T04:59:47.062Z,10.47
2023-11-19T05:00:47.090Z,10.48
2023-11-19T05:01:47.036Z,10.47
2023-11-19T05:02:47.146Z,10.48
2023-11-19T05:03:47.208Z,10.48
2023-11-19T05:04:47.110Z,10.45
2023-11-19T05:05:46.992Z,10.47
2023-11-19T05:06:46.976Z,10.51
2023-11-19T05:07:46.962Z,10.52
2023-11-19T05:08:46.987Z,10.45
2023-11-19T05:09:46.963Z,10.47
2023-11-19T05:10:46.957Z,10.45
2023-11-19T05:12:46.950Z,10.47
2023-11-19T05:13:46.884Z,10.44
2023-11-19T05:14:46.954Z,10.44
2023-11-19T05:15:46.914Z,10.42
2023-11-19T05:16:46.958Z,10.44
2023-11-19T05:17:46.900Z,10.42
2023-11-19T05:18:46.856Z,10.42
2023-11-19T05:19:46.844Z,10.40
2023-11-19T05:20:46.849Z,10.40
2023-11-19T05:21:46.826Z,10.38
2023-11-19T05:22:46.798Z,10.34
2023-11-19T05:23:46.790Z,10.32
2023-11-19T05:24:46.789Z,10.30
2023-11-19T05:25:46.787Z,10.32
2023-11-19T05:26:46.763Z,10.30
2023-11-19T05:27:46.764Z,10.32
2023-11-19T05:28:46.736Z,10.30
2023-11-19T05:29:46.740Z,10.32
2023-11-19T05:30:46.729Z,10.30
2023-11-19T05:31:46.757Z,10.33
2023-11-19T05:32:46.690Z,10.34
2023-11-19T05:33:46.745Z,10.34
2023-11-19T05:35:46.663Z,10.32
2023-11-19T05:36:46.660Z,10.32
2023-11-19T05:37:46.647Z,10.30
2023-11-19T05:38:46.642Z,10.33
2023-11-19T05:39:46.618Z,10.30
2023-11-19T05:40:46.615Z,10.34
2023-11-19T05:41:46.604Z,10.36
2023-11-19T05:42:46.629Z,10.33
2023-11-19T05:43:46.598Z,10.36
2023-11-19T05:44:46.562Z,10.34
2023-11-19T05:45:46.549Z,10.38
2023-11-19T05:46:46.657Z,10.38
2023-11-19T05:47:46.642Z,10.41
2023-11-19T05:48:46.545Z,10.40
2023-11-19T05:49:46.533Z,10.41
2023-11-19T05:50:46.493Z,10.42
2023-11-19T05:51:46.501Z,10.41
2023-11-19T05:52:46.507Z,10.40
2023-11-19T05:53:46.480Z,10.36
2023-11-19T05:54:46.473Z,10.40
2023-11-19T05:55:46.434Z,10.36
2023-11-19T05:56:46.458Z,10.38
2023-11-19T05:57:47.169Z,10.36
2023-11-19T05:58:46.535Z,10.40
2023-11-19T05:59:46.416Z,10.40
2023-11-19T06:00:46.443Z,10.38
2023-11-19T06:01:46.446Z,10.40
2023-11-19T06:02:46.378Z,10.38
2023-11-19T06:03:46.456Z,10.41
2023-11-19T06:04:46.401Z,10.38
2023-11-19T06:05:46.337Z,10.36
2023-11-19T06:06:46.344Z,10.38
2023-11-19T06:07:46.312Z,10.40
2023-11-19T06:08:46.332Z,10.40
2023-11-19T06:09:46.317Z,10.40
2023-11-19T06:10:46.289Z,10.42
2023-11-19T06:11:46.269Z,10.41
2023-11-19T06:12:46.267Z,10.41
2023-11-19T06:13:46.349Z,10.42
2023-11-19T06:14:46.235Z,10.41
2023-11-19T06:15:46.272Z,10.41
2023-11-19T06:16:46.300Z,10.41
2023-11-19T06:17:46.308Z,10.42
2023-11-19T06:18:46.313Z,10.38
2023-11-19T06:19:46.222Z,10.41
2023-11-19T06:20:46.197Z,10.41
2023-11-19T06:21:46.165Z,10.42
2023-11-19T06:22:46.172Z,10.41
2023-11-19T06:23:46.189Z,10.41
2023-11-19T06:24:46.169Z,10.40
2023-11-19T06:25:46.169Z,10.38
2023-11-19T06:26:46.112Z,10.40
2023-11-19T06:27:46.095Z,10.34
2023-11-19T06:28:46.125Z,10.36
2023-11-19T06:29:46.093Z,10.36
2023-11-19T06:30:49.321Z,10.34
2023-11-19T06:31:46.053Z,10.36
2023-11-19T06:32:46.061Z,10.34
2023-11-19T06:33:46.056Z,10.33
2023-11-19T06:34:46.069Z,10.30
2023-11-19T06:35:46.039Z,10.30
2023-11-19T06:36:46.066Z,10.27
2023-11-19T06:37:46.021Z,10.26
2023-11-19T06:38:45.980Z,10.25
2023-11-19T06:39:46.007Z,10.22
2023-11-19T06:40:46.001Z,10.23
2023-11-19T06:41:45.949Z,10.23
2023-11-19T06:42:45.967Z,10.23
2023-11-19T06:43:45.952Z,10.23
2023-11-19T06:44:45.942Z,10.20
2023-11-19T06:45:45.938Z,10.17
2023-11-19T06:46:45.944Z,10.12
2023-11-19T06:47:45.893Z,10.14
2023-11-19T06:48:45.911Z,10.14
2023-11-19T06:49:45.878Z,10.15
2023-11-19T06:50:45.873Z,10.18
2023-11-19T06:51:45.838Z,10.18
2023-11-19T06:52:45.854Z,10.18
2023-11-19T06:53:46.146Z,10.15
2023-11-19T06:54:45.812Z,10.15
2023-11-19T06:55:45.891Z,10.15
2023-11-19T06:56:46.672Z,10.12
2023-11-19T06:57:45.786Z,10.20
2023-11-19T06:58:45.801Z,10.22
2023-11-19T06:59:45.817Z,10.20
2023-11-19T07:00:45.800Z,10.22
2023-11-19T07:01:45.743Z,10.25
2023-11-19T07:02:45.966Z,10.29
2023-11-19T07:03:45.849Z,10.27
2023-11-19T07:04:45.769Z,10.27
2023-11-19T07:05:45.726Z,10.23
2023-11-19T07:06:45.709Z,10.23
2023-11-19T07:07:45.794Z,10.25
2023-11-19T07:08:45.656Z,10.25
2023-11-19T07:09:45.697Z,10.25
2023-11-19T07:10:45.651Z,10.22
2023-11-19T07:11:45.621Z,10.18
2023-11-19T07:12:45.614Z,10.18
2023-11-19T07:13:45.587Z,10.17
2023-11-19T07:14:45.636Z,10.14
2023-11-19T07:15:45.643Z,10.15
2023-11-19T07:16:45.627Z,10.12
2023-11-19T07:17:45.689Z,10.12
2023-11-19T07:18:45.718Z,10.14
2023-11-19T07:19:45.666Z,10.14
2023-11-19T07:20:46.513Z,10.12
2023-11-19T07:21:45.519Z,10.11
2023-11-19T07:22:45.526Z,10.14
2023-11-19T07:23:46.117Z,10.14
2023-11-19T07:24:45.514Z,10.14
2023-11-19T07:25:45.434Z,10.11
2023-11-19T07:26:45.431Z,10.15
2023-11-19T07:27:45.403Z,10.14
2023-11-19T07:28:45.393Z,10.11
2023-11-19T07:29:45.465Z,10.11
2023-11-19T07:30:45.391Z,10.08
2023-11-19T07:31:45.350Z,10.08
2023-11-19T07:32:45.446Z,10.08
2023-11-19T07:33:45.404Z,10.09
2023-11-19T07:34:45.339Z,10.12
2023-11-19T07:35:45.361Z,10.15
2023-11-19T07:36:45.298Z,10.14
2023-11-19T07:37:45.298Z,10.15
2023-11-19T07:38:45.273Z,10.17
2023-11-19T07:39:46.220Z,10.18
2023-11-19T07:40:56.913Z,10.18
2023-11-19T07:41:45.385Z,10.17
2023-11-19T07:42:45.300Z,10.15
2023-11-19T07:43:45.236Z,10.18
2023-11-19T07:44:45.327Z,10.20
2023-11-19T07:45:45.221Z,10.25
2023-11-19T07:46:45.242Z,10.29
2023-11-19T07:47:45.268Z,10.32
2023-11-19T07:48:45.217Z,10.32
2023-11-19T07:49:46.043Z,10.33
2023-11-19T07:50:45.176Z,10.32
2023-11-19T07:51:45.172Z,10.34
2023-11-19T07:52:45.142Z,10.30
2023-11-19T07:53:45.164Z,10.30
2023-11-19T07:54:45.141Z,10.32
2023-11-19T07:55:45.090Z,10.32
2023-11-19T07:56:45.215Z,10.33
2023-11-19T07:57:45.077Z,10.33
2023-11-19T07:58:45.070Z,10.33
2023-11-19T07:59:45.069Z,10.30
2023-11-19T08:00:45.068Z,10.27
2023-11-19T08:01:45.107Z,10.30
2023-11-19T08:02:49.792Z,10.27
2023-11-19T08:03:58.592Z,10.25
2023-11-19T08:04:45.106Z,10.23
2023-11-19T08:05:45.085Z,10.22
2023-11-19T08:06:45.086Z,10.20
2023-11-19T08:07:44.972Z,10.18
2023-11-19T08:08:45.063Z,10.18
2023-11-19T08:09:44.982Z,10.17
2023-11-19T08:10:44.949Z,10.17
2023-11-19T08:11:44.957Z,10.18
2023-11-19T08:12:44.949Z,10.18
2023-11-19T08:13:44.895Z,10.17
2023-11-19T08:14:44.934Z,10.20
2023-11-19T08:15:44.890Z,10.20
2023-11-19T08:16:44.879Z,10.23
2023-11-19T08:17:45.023Z,10.25
2023-11-19T08:18:44.848Z,10.25
2023-11-19T08:19:44.843Z,10.26
2023-11-19T08:20:44.843Z,10.25
2023-11-19T08:21:44.844Z,10.25
2023-11-19T08:22:44.822Z,10.27
2023-11-19T08:23:44.842Z,10.23
2023-11-19T08:24:44.830Z,10.26
2023-11-19T08:25:44.765Z,10.27
2023-11-19T08:26:44.841Z,10.29
2023-11-19T08:27:44.749Z,10.27
2023-11-19T08:28:44.762Z,10.26
2023-11-19T08:29:44.733Z,10.25
2023-11-19T08:30:44.730Z,10.26
2023-11-19T08:31:44.721Z,10.25
2023-11-19T08:32:44.807Z,10.23
2023-11-19T08:33:44.758Z,10.25
2023-11-19T08:34:44.731Z,10.26
2023-11-19T08:35:44.681Z,10.25
2023-11-19T08:36:44.653Z,10.25
2023-11-19T08:37:44.664Z,10.23
2023-11-19T08:38:44.739Z,10.20
2023-11-19T08:39:44.618Z,10.23
2023-11-19T08:40:44.620Z,10.25
2023-11-19T08:41:44.648Z,10.29
2023-11-19T08:42:44.605Z,10.32
2023-11-19T08:43:44.611Z,10.29
2023-11-19T08:44:44.564Z,10.34
2023-11-19T08:45:44.636Z,10.40
2023-11-19T08:46:45.008Z,10.47
2023-11-19T08:47:44.633Z,10.51
2023-11-19T08:48:44.547Z,10.55
2023-11-19T08:49:44.517Z,10.53
2023-11-19T08:50:44.574Z,10.55
2023-11-19T08:51:44.507Z,10.60
2023-11-19T08:52:44.526Z,10.63
2023-11-19T08:53:44.574Z,10.64
2023-11-19T08:54:44.472Z,10.66
2023-11-19T08:55:44.589Z,10.68
2023-11-19T08:56:44.452Z,10.67
2023-11-19T08:57:44.429Z,10.63
2023-11-19T08:58:44.462Z,10.61
2023-11-19T08:59:44.412Z,10.64
2023-11-19T09:00:44.404Z,10.63
2023-11-19T09:01:44.424Z,10.60
2023-11-19T09:02:44.679Z,10.60
2023-11-19T09:03:44.511Z,10.60
2023-11-19T09:04:44.455Z,10.59
2023-11-19T09:05:44.391Z,10.60
2023-11-19T09:06:44.329Z,10.59
2023-11-19T09:07:44.342Z,10.59
2023-11-19T09:08:44.376Z,10.59
2023-11-19T09:09:44.316Z,10.59
2023-11-19T09:10:45.129Z,10.59
2023-11-19T09:11:44.317Z,10.59
2023-11-19T09:12:44.344Z,10.56
2023-11-19T09:13:44.799Z,10.56
2023-11-19T09:14:44.288Z,10.55
2023-11-19T09:15:44.275Z,10.53
2023-11-19T09:16:44.247Z,10.47
2023-11-19T09:17:44.283Z,10.42
2023-11-19T09:18:44.207Z,10.36
2023-11-19T09:19:44.212Z,10.34
2023-11-19T09:20:44.223Z,10.32
2023-11-19T09:21:44.220Z,10.29
2023-11-19T09:22:44.163Z,10.25
2023-11-19T09:23:45.182Z,10.22
2023-11-19T09:24:44.136Z,10.18
2023-11-19T09:25:45.822Z,10.18
2023-11-19T09:26:44.155Z,10.18
2023-11-19T09:27:44.120Z,10.22
2023-11-19T09:28:44.261Z,10.15
2023-11-19T09:29:44.362Z,10.15
2023-11-19T09:30:44.087Z,10.14
2023-11-19T09:31:44.070Z,10.14
2023-11-19T09:32:44.180Z,10.14
2023-11-19T09:33:44.180Z,10.15
2023-11-19T09:34:44.046Z,10.18
2023-11-19T09:35:44.066Z,10.23
2023-11-19T09:36:47.050Z,10.25
2023-11-19T09:37:43.998Z,10.29
2023-11-19T09:38:44.018Z,10.29
2023-11-19T09:39:43.976Z,10.29
2023-11-19T09:40:43.962Z,10.29
2023-11-19T09:41:43.985Z,10.27
2023-11-19T09:42:43.958Z,10.29
2023-11-19T09:43:43.955Z,10.29
2023-11-19T09:44:49.429Z,10.32
2023-11-19T09:45:43.936Z,10.34
2023-11-19T09:46:43.892Z,10.36
2023-11-19T09:47:43.985Z,10.38
2023-11-19T09:48:43.896Z,10.41
2023-11-19T09:49:43.892Z,10.45
2023-11-19T09:50:43.890Z,10.45
2023-11-19T09:51:43.863Z,10.51
2023-11-19T09:52:43.838Z,10.55
2023-11-19T09:53:43.910Z,10.56
2023-11-19T09:54:43.849Z,10.59
2023-11-19T09:55:43.815Z,10.64
2023-11-19T09:56:43.830Z,10.66
2023-11-19T09:57:43.808Z,10.67
2023-11-19T09:58:43.767Z,10.68
2023-11-19T09:59:43.820Z,10.68
2023-11-19T10:00:43.793Z,10.70
2023-11-19T10:01:43.931Z,10.68
2023-11-19T10:02:43.832Z,10.67
2023-11-19T10:03:43.860Z,10.64
2023-11-19T10:04:43.794Z,10.60
2023-11-19T10:05:43.722Z,10.61
2023-11-19T10:06:43.704Z,10.60
2023-11-19T10:07:43.695Z,10.60
2023-11-19T10:08:43.702Z,10.52
2023-11-19T10:09:43.669Z,10.52
2023-11-19T10:10:43.634Z,10.51
2023-11-19T10:11:43.672Z,10.51
2023-11-19T10:12:57.810Z,10.52
2023-11-19T10:13:43.766Z,10.59
2023-11-19T10:14:43.609Z,10.59
2023-11-19T10:15:43.655Z,10.59
2023-11-19T10:16:43.603Z,10.61
2023-11-19T10:17:43.624Z,10.64
2023-11-19T10:18:43.580Z,10.67
2023-11-19T10:19:43.564Z,10.68
2023-11-19T10:20:43.569Z,10.74
2023-11-19T10:21:43.530Z,10.74
2023-11-19T10:22:43.538Z,10.78
2023-11-19T10:23:43.549Z,10.78
2023-11-19T10:24:46.631Z,10.78
2023-11-19T10:25:43.506Z,10.76
2023-11-19T10:26:43.537Z,10.79
2023-11-19T10:27:43.475Z,10.85
2023-11-19T10:28:43.456Z,10.89
2023-11-19T10:29:43.506Z,10.89
2023-11-19T10:30:43.460Z,10.91
2023-11-19T10:31:43.424Z,10.96
2023-11-19T10:32:43.488Z,10.96
2023-11-19T10:33:43.661Z,11.00
2023-11-19T10:34:43.459Z,11.10
2023-11-19T10:35:43.428Z,11.10
2023-11-19T10:36:43.479Z,11.14
2023-11-19T10:37:43.376Z,11.14
2023-11-19T10:38:43.373Z,11.15
2023-11-19T10:39:43.334Z,11.18
2023-11-19T10:40:43.340Z,11.19
2023-11-19T10:41:43.396Z,11.25
2023-11-19T10:42:43.296Z,11.27
2023-11-19T10:43:43.352Z,11.28
2023-11-19T10:44:43.343Z,11.33
2023-11-19T10:45:43.296Z,11.32
2023-11-19T10:46:43.344Z,11.33
2023-11-19T10:47:43.856Z,11.35
2023-11-19T10:48:43.284Z,11.35
2023-11-19T10:49:43.260Z,11.35
2023-11-19T10:50:44.195Z,11.29
2023-11-19T10:51:43.225Z,11.25
2023-11-19T10:52:43.228Z,11.21
2023-11-19T10:53:43.205Z,11.18
2023-11-19T10:54:43.193Z,11.17
2023-11-19T10:55:43.187Z,11.17
2023-11-19T10:56:43.173Z,11.19
2023-11-19T10:57:43.182Z,11.17
2023-11-19T10:58:43.129Z,11.17
2023-11-19T10:59:43.175Z,11.17
2023-11-19T11:00:43.108Z,11.18
2023-11-19T11:01:43.126Z,11.22
2023-11-19T11:02:43.169Z,11.22
2023-11-19T11:03:43.225Z,11.24
2023-11-19T11:04:43.082Z,11.24
2023-11-19T11:05:43.110Z,11.22
2023-11-19T11:06:43.117Z,11.21
2023-11-19T11:07:43.079Z,11.19
2023-11-19T11:08:43.036Z,11.17
2023-11-19T11:09:43.039Z,11.19
2023-11-19T11:10:57.007Z,11.21
2023-11-19T11:11:43.034Z,11.19
2023-11-19T11:12:43.455Z,11.14
2023-11-19T11:13:43.029Z,11.10
2023-11-19T11:14:42.987Z,11.07
2023-11-19T11:15:42.964Z,11.00
2023-11-19T11:16:43.017Z,10.92
2023-11-19T11:17:43.010Z,10.91
2023-11-19T11:18:43.022Z,10.89
2023-11-19T11:19:42.911Z,10.86
2023-11-19T11:20:42.900Z,10.85
2023-11-19T11:21:42.905Z,10.82
2023-11-19T11:22:44.268Z,10.82
2023-11-19T11:23:42.913Z,10.84
2023-11-19T11:24:42.890Z,10.86
2023-11-19T11:25:42.863Z,10.94
2023-11-19T11:26:42.853Z,10.96
2023-11-19T11:27:42.862Z,11.00
2023-11-19T11:28:42.869Z,11.03
2023-11-19T11:29:42.854Z,11.09
2023-11-19T11:30:42.851Z,11.10
2023-11-19T11:31:42.839Z,11.11
2023-11-19T11:32:42.784Z,11.22
2023-11-19T11:33:42.764Z,11.19
2023-11-19T11:34:42.740Z,11.21
2023-11-19T11:35:42.866Z,11.25
2023-11-19T11:36:42.761Z,11.22
2023-11-19T11:37:42.721Z,11.22
2023-11-19T11:38:42.758Z,11.21
2023-11-19T11:39:42.716Z,11.27
2023-11-19T11:40:42.673Z,11.29
2023-11-19T11:41:42.690Z,11.37
2023-11-19T11:42:42.715Z,11.37
2023-11-19T11:43:42.647Z,11.40
2023-11-19T11:44:42.628Z,11.40
2023-11-19T11:45:42.701Z,11.40
2023-11-19T11:46:42.709Z,11.39
2023-11-19T11:47:42.640Z,11.36
2023-11-19T11:48:42.621Z,11.33
2023-11-19T11:49:42.624Z,11.35
2023-11-19T11:50:42.622Z,11.32
2023-11-19T11:51:42.618Z,11.28
2023-11-19T11:52:42.600Z,11.25
2023-11-19T11:53:42.566Z,11.21
2023-11-19T11:54:42.572Z,11.19
2023-11-19T11:55:42.567Z,11.15
2023-11-19T11:56:42.548Z,11.14
2023-11-19T11:57:42.527Z,11.15
2023-11-19T11:58:43.556Z,11.11
2023-11-19T11:59:42.568Z,11.10
2023-11-19T12:00:42.504Z,11.14
2023-11-19T12:01:42.468Z,11.11
2023-11-19T12:02:42.515Z,11.11
2023-11-19T12:03:42.499Z,11.14
2023-11-19T12:04:42.655Z,11.18
2023-11-19T12:05:44.420Z,11.15
2023-11-19T12:06:42.421Z,11.18
2023-11-19T12:07:42.421Z,11.15
2023-11-19T12:09:42.424Z,11.10
2023-11-19T12:10:42.462Z,11.09
2023-11-19T12:11:42.412Z,11.10
2023-11-19T12:12:42.401Z,11.07
2023-11-19T12:13:42.366Z,11.06
2023-11-19T12:14:42.360Z,11.04
2023-11-19T12:15:42.388Z,11.04
2023-11-19T12:16:42.372Z,11.04
2023-11-19T12:17:42.376Z,11.00
2023-11-19T12:18:42.323Z,10.97
2023-11-19T12:19:42.289Z,10.96
2023-11-19T12:20:42.290Z,10.92
2023-11-19T12:21:43.149Z,10.94
2023-11-19T12:22:42.272Z,10.94
2023-11-19T12:23:42.227Z,10.94
2023-11-19T12:24:42.251Z,10.94
2023-11-19T12:25:42.280Z,10.94
2023-11-19T12:26:42.202Z,10.96
2023-11-19T12:27:42.370Z,10.96
2023-11-19T12:28:42.206Z,10.99
2023-11-19T12:29:42.172Z,10.99
2023-11-19T12:30:42.296Z,10.97
2023-11-19T12:31:42.349Z,10.94
2023-11-19T12:32:42.200Z,10.96
2023-11-19T12:33:42.184Z,10.94
2023-11-19T12:34:42.105Z,10.94
2023-11-19T12:35:42.123Z,10.97
2023-11-19T12:36:42.169Z,10.99
2023-11-19T12:37:42.088Z,11.02
2023-11-19T12:38:42.059Z,11.02
2023-11-19T12:39:42.086Z,11.02
2023-11-19T12:40:42.086Z,11.04
2023-11-19T12:41:42.032Z,11.07
2023-11-19T12:42:42.061Z,11.10
2023-11-19T12:44:41.988Z,11.17
2023-11-19T12:45:42.053Z,11.18
2023-11-19T12:46:42.014Z,11.21
2023-11-19T12:47:42.105Z,11.28
2023-11-19T12:48:41.974Z,11.36
2023-11-19T12:49:41.957Z,11.40
2023-11-19T12:50:41.936Z,11.42
2023-11-19T12:51:41.986Z,11.44
2023-11-19T12:52:41.941Z,11.46
2023-11-19T12:53:41.954Z,11.44
2023-11-19T12:54:41.906Z,11.40
2023-11-19T12:55:41.881Z,11.39
2023-11-19T12:56:41.886Z,11.39
2023-11-19T12:57:41.944Z,11.37
2023-11-19T12:58:41.862Z,11.35
2023-11-19T12:59:41.895Z,11.32
2023-11-19T13:00:43.548Z,11.29
2023-11-19T13:01:42.848Z,11.28
2023-11-19T13:02:42.718Z,11.27
2023-11-19T13:03:41.926Z,11.28
2023-11-19T13:04:41.826Z,11.25
2023-11-19T13:05:41.809Z,11.28